Weishample, Pennsylvania
Current Conditions -  °F | °C
As of 2:58 AM on Friday 28 Nov 2014 (Local Time) from KMUI Reporting Station
Scattered Clouds Scattered Clouds  
Wind Chill: 24°   Ceiling: Unl
Heat Index: 32°   Visibility: 10mi
Dew Point: 22°   Wind: 9mph
Humidity: 66%   Direction: 260°W
Pressure: 30.13"   Gusts: NA
Location:  40.6638°N, 76.4802°W
Report Text: KMUI 280758Z AUTO 26008KT 10SM SCT042 SCT100 00/M06 A3013 RMK AO2 SLP211 T00011056 $
Loading
Personal Weather Stations






























Interactive Weather Map New forecast layout! Learn more

10-Day Weather Forecast

Advertisements
Track Severe Weather on mobile